This demonstration page uses our WeatherBlox Daily Observations layout. Learn more.

39.29038, -76.61219

Hourly Observations for November 30, 2017

Temp ( °F °C ) Dew Point ( °F °C ) Humidity (%) Winds ( mph kmh ) Pressure ( in mb ) Visibility ( mi km ) Precip ( " mm )
12:54 am 00:54 undefined 49 9.4 25 -3.9 39 39 undefined N/A 30.27 1025 N/A 0 0
1:54 am 01:54 undefined 47 8.3 26 -3.3 44 44 undefined N/A 30.3 1026 N/A 0 0
2:54 am 02:54 undefined 46 7.8 28 -2.2 50 50 undefined N/A 30.3 1026 N/A 0 0
3:54 am 03:54 undefined 46 7.8 29 -1.7 51 51 undefined N/A 30.3 1026 N/A 0 0
4:54 am 04:54 undefined 45 7.2 30 -1.1 56 56 undefined N/A 30.3 1026 N/A 0 0
5:54 am 05:54 undefined 44 6.7 29 -1.7 55 55 undefined N/A 30.3 1026 N/A 0 0
6:54 am 06:54 undefined 44 6.7 30 -1.1 58 58 undefined N/A 30.3 1026 N/A 0 0
7:54 am 07:54 undefined 43 6.1 30 -1.1 60 60 undefined N/A 30.3 1026 N/A 0 0
8:54 am 08:54 undefined 44 6.7 31 -0.6 60 60 undefined N/A 30.27 1025 N/A 0 0
9:54 am 09:54 undefined 46 7.8 32 0 58 58 undefined N/A 30.27 1025 N/A 0 0
10:54 am 10:54 undefined 51 10.6 35 1.7 54 54 undefined N/A 30.24 1024 N/A 0 0
11:54 am 11:54 undefined 51 10.6 37 2.8 59 59 undefined N/A 30.21 1023 N/A 0 0
12:54 pm 12:54 undefined 52 11.1 39 3.9 61 61 undefined N/A 30.18 1022 N/A 0 0
1:54 pm 13:54 undefined 54 12.2 40 4.4 59 59 undefined N/A 30.12 1020 N/A 0 0
2:54 pm 14:54 undefined 54 12.2 42 5.6 64 64 undefined N/A 30.09 1019 N/A 0 0
3:54 pm 15:54 undefined 54 12.2 43 6.1 67 67 undefined N/A 30.06 1018 N/A 0 0
4:54 pm 16:54 undefined 52 11.1 43 6.1 72 72 undefined N/A 30.06 1018 N/A 0 0
5:54 pm 17:54 undefined 51 10.6 43 6.1 74 74 undefined N/A 30.03 1017 N/A 0 0
6:54 pm 18:54 undefined 50 10 44 6.7 80 80 undefined N/A 30.03 1017 N/A 0 0
7:54 pm 19:54 undefined 51 10.6 45 7.2 80 80 undefined N/A 30.03 1017 N/A 0 0
8:54 pm 20:54 undefined 52 11.1 47 8.3 83 83 undefined N/A 30.03 1017 N/A 0 0
9:54 pm 21:54 undefined 51 10.6 49 9.4 92 92 undefined N/A 30.03 1017 N/A 0.03 0.762
10:54 pm 22:54 undefined 52 11.1 49 9.4 89 89 undefined N/A 30.03 1017 N/A 0 0
11:54 pm 23:54 undefined 51 10.6 48 8.9 89 89 undefined N/A 30 1016 N/A 0 0

Powered by AerisWeather